createdAt,value
2022-12-19T00:05:02.731Z,33.50
2022-12-19T00:20:03.070Z,29.80
2022-12-19T00:35:03.353Z,25.40
2022-12-19T00:50:03.500Z,30.30
2022-12-19T01:05:05.413Z,22.90
2022-12-19T01:20:05.559Z,23.40
2022-12-19T01:35:06.183Z,23.40
2022-12-19T01:50:11.617Z,18.70
2022-12-19T02:05:12.112Z,22.50
2022-12-19T02:20:12.587Z,30.30
2022-12-19T02:35:12.969Z,22.30
2022-12-19T02:50:15.313Z,34.40
2022-12-19T03:05:15.351Z,26.50
2022-12-19T03:20:17.588Z,33.20
2022-12-19T03:35:19.315Z,30.80
2022-12-19T03:50:19.958Z,30.40
2022-12-19T04:05:19.775Z,25.40
2022-12-19T04:20:20.331Z,25.00
2022-12-19T04:35:22.159Z,22.70
2022-12-19T04:50:22.548Z,29.70
2022-12-19T05:05:23.003Z,28.60
2022-12-19T05:20:23.492Z,40.00
2022-12-19T05:35:23.913Z,23.80
2022-12-19T05:50:24.290Z,31.20
2022-12-19T06:05:24.559Z,28.30
2022-12-19T06:20:24.981Z,27.10
2022-12-19T06:35:26.684Z,27.40
2022-12-19T06:50:27.157Z,32.20
2022-12-19T07:05:27.339Z,27.60
2022-12-19T07:20:27.561Z,27.30
2022-12-19T07:35:28.903Z,26.20
2022-12-19T07:50:29.259Z,26.20
2022-12-19T08:05:29.401Z,27.60
2022-12-19T08:20:32.119Z,21.90
2022-12-19T08:35:33.541Z,24.20
2022-12-19T08:50:34.719Z,20.10
2022-12-19T09:06:05.461Z,17.20
2022-12-19T09:20:40.649Z,15.40
2022-12-19T09:35:40.707Z,21.30
2022-12-19T09:50:41.027Z,22.00
2022-12-19T10:06:02.872Z,19.00
2022-12-19T10:20:46.987Z,25.40
2022-12-19T10:35:47.549Z,19.00
2022-12-19T10:50:48.236Z,29.20
2022-12-19T11:05:57.712Z,38.10
2022-12-19T11:29:35.213Z,52.30
2022-12-19T11:36:01.265Z,17.70
2022-12-19T11:51:02.903Z,27.40
2022-12-19T12:06:05.106Z,22.60
2022-12-19T12:31:40.797Z,29.10
2022-12-19T12:51:17.205Z,32.40
2022-12-19T13:06:17.740Z,25.10
2022-12-19T13:21:18.467Z,30.30
2022-12-19T13:39:50.287Z,27.20
2022-12-19T13:51:23.950Z,19.80
2022-12-19T14:06:24.371Z,31.80
2022-12-19T14:22:06.090Z,36.80
2022-12-19T14:36:31.557Z,31.80
2022-12-19T14:54:21.294Z,36.70
2022-12-19T15:07:09.332Z,42.80
2022-12-19T15:21:42.172Z,31.40
2022-12-19T15:36:42.907Z,43.10
2022-12-19T15:51:43.168Z,48.60
2022-12-19T16:06:43.433Z,45.50
2022-12-19T16:21:43.647Z,43.90
2022-12-19T16:36:44.358Z,50.50
2022-12-19T16:51:45.132Z,47.80
2022-12-19T17:06:45.411Z,60.40
2022-12-19T17:21:46.048Z,48.00
2022-12-19T17:36:46.175Z,62.70
2022-12-19T17:51:46.451Z,52.80
2022-12-19T18:06:46.587Z,58.10
2022-12-19T18:21:47.164Z,59.40
2022-12-19T18:36:47.437Z,53.30
2022-12-19T18:51:47.774Z,56.50
2022-12-19T19:06:51.686Z,54.50
2022-12-19T19:21:54.922Z,51.20
2022-12-19T19:36:56.555Z,56.10
2022-12-19T19:52:02.477Z,62.40
2022-12-19T20:07:03.720Z,45.50
2022-12-19T20:22:04.291Z,47.60
2022-12-19T20:37:04.475Z,44.10
2022-12-19T20:52:04.753Z,51.10
2022-12-19T21:07:06.812Z,41.60
2022-12-19T21:22:07.213Z,47.20
2022-12-19T21:37:08.632Z,45.10
2022-12-19T21:52:12.154Z,44.20
2022-12-19T22:07:14.317Z,43.60
2022-12-19T22:22:16.936Z,47.10
2022-12-19T22:37:20.636Z,41.60
2022-12-19T22:52:21.369Z,36.10
2022-12-19T23:07:23.283Z,42.70
2022-12-19T23:22:25.173Z,34.70
2022-12-19T23:37:26.297Z,27.40
2022-12-19T23:52:27.720Z,35.90
